createdAt,value
2024-05-09T00:00:42.166Z,101978.98
2024-05-09T00:03:29.316Z,101976.01
2024-05-09T00:05:56.621Z,101972.33
2024-05-09T00:08:24.075Z,101974.61
2024-05-09T00:10:51.974Z,101970.42
2024-05-09T00:13:19.081Z,101969.71
2024-05-09T00:15:46.598Z,101967.80
2024-05-09T00:18:14.031Z,101965.52
2024-05-09T00:20:41.724Z,101965.34
2024-05-09T00:23:15.103Z,101961.32
2024-05-09T00:25:44.070Z,101956.05
2024-05-09T00:28:12.279Z,101953.77
2024-05-09T00:30:40.066Z,101952.21
2024-05-09T00:33:09.352Z,101955.70
2024-05-09T00:35:38.395Z,101959.36
2024-05-09T00:38:05.964Z,101961.82
2024-05-09T00:40:41.061Z,101960.24
2024-05-09T00:43:12.065Z,101955.17
2024-05-09T00:45:40.093Z,101953.94
2024-05-09T00:48:09.656Z,101955.16
2024-05-09T00:50:40.450Z,101953.20
2024-05-09T00:53:11.314Z,101944.80
2024-05-09T00:55:39.567Z,101942.00
2024-05-09T00:58:09.015Z,101944.61
2024-05-09T01:00:39.776Z,101948.64
2024-05-09T01:03:11.107Z,101954.07
2024-05-09T01:05:41.602Z,101956.73
2024-05-09T01:08:10.099Z,101959.34
2024-05-09T01:10:38.355Z,101963.55
2024-05-09T01:13:06.913Z,101964.61
2024-05-09T01:15:35.709Z,101968.25
2024-05-09T01:18:13.902Z,101970.16
2024-05-09T01:20:44.335Z,101966.65
2024-05-09T01:23:15.530Z,101961.92
2024-05-09T01:25:44.701Z,101958.63
2024-05-09T01:28:12.320Z,101961.78
2024-05-09T01:30:39.532Z,101958.83
2024-05-09T01:33:09.203Z,101950.28
2024-05-09T01:35:39.791Z,101946.25
2024-05-09T01:38:07.568Z,101946.77
2024-05-09T01:40:38.677Z,101950.11
2024-05-09T01:43:08.551Z,101950.08
2024-05-09T01:45:36.891Z,101943.78
2024-05-09T01:48:05.574Z,101939.45
2024-05-09T01:50:38.690Z,101938.23
2024-05-09T01:53:14.085Z,101937.19
2024-05-09T01:55:42.541Z,101939.98
2024-05-09T01:58:10.161Z,101937.89
2024-05-09T02:00:41.946Z,101928.27
2024-05-09T02:03:14.915Z,101929.67
2024-05-09T02:05:46.325Z,101932.66
2024-05-09T02:08:19.983Z,101931.10
2024-05-09T02:10:49.187Z,101935.48
2024-05-09T02:13:16.933Z,101942.13
2024-05-09T02:15:44.381Z,101942.48
2024-05-09T02:18:12.182Z,101937.09
2024-05-09T02:20:40.457Z,101931.17
2024-05-09T02:23:08.532Z,101929.78
2024-05-09T02:25:36.542Z,101926.11
2024-05-09T02:28:04.213Z,101927.86
2024-05-09T02:30:39.239Z,101928.77
2024-05-09T02:33:11.390Z,101932.96
2024-05-09T02:35:41.870Z,101937.52
2024-05-09T02:38:09.748Z,101938.40
2024-05-09T02:40:39.182Z,101936.84
2024-05-09T02:43:09.058Z,101932.65
2024-05-09T02:45:38.518Z,101937.02
2024-05-09T02:48:06.608Z,101939.81
2024-05-09T02:50:38.389Z,101934.23
2024-05-09T02:53:08.398Z,101930.91
2024-05-09T02:55:37.179Z,101931.09
2024-05-09T02:58:07.235Z,101933.37
2024-05-09T03:00:39.075Z,101931.62
2024-05-09T03:03:11.808Z,101934.41
2024-05-09T03:05:43.368Z,101937.21
2024-05-09T03:08:10.926Z,101939.83
2024-05-09T03:10:39.268Z,101941.73
2024-05-09T03:13:11.670Z,101943.99
2024-05-09T03:15:41.557Z,101944.17
2024-05-09T03:18:08.921Z,101943.13
2024-05-09T03:20:37.589Z,101946.97
2024-05-09T03:23:06.805Z,101949.94
2024-05-09T03:25:34.577Z,101953.43
2024-05-09T03:28:02.055Z,101955.52
2024-05-09T03:30:36.245Z,101960.58
2024-05-09T03:33:19.508Z,101957.77
2024-05-09T03:35:48.810Z,101953.22
2024-05-09T03:38:16.835Z,101954.43
2024-05-09T03:40:50.436Z,101955.48
2024-05-09T03:43:18.950Z,101960.71
2024-05-09T03:45:49.957Z,101959.80
2024-05-09T03:48:17.343Z,101961.00
2024-05-09T03:50:44.890Z,101961.50
2024-05-09T03:53:14.085Z,101960.79
2024-05-09T03:55:41.566Z,101964.95
2024-05-09T03:58:08.802Z,101967.54
2024-05-09T04:00:38.949Z,101968.05
2024-05-09T04:03:10.421Z,101971.38
2024-05-09T04:05:45.385Z,101973.96
2024-05-09T04:08:16.086Z,101976.55
2024-05-09T04:10:43.587Z,101976.51
2024-05-09T04:13:11.030Z,101978.77
2024-05-09T04:15:39.161Z,101981.35
2024-05-09T04:18:06.404Z,101987.62
2024-05-09T04:20:38.681Z,101990.73
2024-05-09T04:23:12.815Z,101986.02
2024-05-09T04:25:43.273Z,101982.11
2024-05-09T04:28:10.689Z,101980.84
2024-05-09T04:30:40.683Z,101980.59
2024-05-09T04:33:11.474Z,101983.17
2024-05-09T04:35:43.906Z,101983.30
2024-05-09T04:38:12.310Z,101979.76
2024-05-09T04:40:41.046Z,101980.94
2024-05-09T04:43:14.873Z,101980.73
2024-05-09T04:45:42.220Z,101976.30
2024-05-09T04:48:09.876Z,101980.47
2024-05-09T04:50:39.165Z,101983.39
2024-05-09T04:53:09.900Z,101982.09
2024-05-09T04:55:39.889Z,101988.91
2024-05-09T04:58:11.171Z,101989.40
2024-05-09T05:00:40.256Z,101992.38
2024-05-09T05:03:13.427Z,101994.09
2024-05-09T05:05:44.478Z,101994.26
2024-05-09T05:08:17.774Z,101998.23
2024-05-09T05:10:47.083Z,101995.42
2024-05-09T05:13:24.587Z,101994.17
2024-05-09T05:15:56.079Z,101995.80
2024-05-09T05:18:25.375Z,101996.15
2024-05-09T05:20:54.348Z,101998.27
2024-05-09T05:23:22.490Z,102001.36
2024-05-09T05:25:51.802Z,102002.05
2024-05-09T05:28:19.578Z,102002.53
2024-05-09T05:30:46.831Z,102000.20
2024-05-09T05:33:15.876Z,101998.61
2024-05-09T05:35:44.188Z,101999.23
2024-05-09T05:38:12.043Z,102000.34
2024-05-09T05:40:40.611Z,102000.70
2024-05-09T05:43:15.653Z,101998.77
2024-05-09T05:45:44.378Z,101998.66
2024-05-09T05:48:13.550Z,101999.30
2024-05-09T05:51:05.911Z,101999.66
2024-05-09T05:53:43.974Z,101999.55
2024-05-09T05:56:11.691Z,101994.41
2024-05-09T05:58:45.922Z,101989.40
2024-05-09T06:01:13.582Z,101995.66
2024-05-09T06:03:41.092Z,101997.02
2024-05-09T06:06:08.396Z,101998.36
2024-05-09T06:08:35.547Z,101999.12
2024-05-09T06:11:02.568Z,101998.71
2024-05-09T06:13:29.816Z,101999.14
2024-05-09T06:15:59.251Z,101994.63
2024-05-09T06:18:27.160Z,101994.00
2024-05-09T06:20:54.488Z,101999.33
2024-05-09T06:23:21.678Z,102002.95
2024-05-09T06:25:50.660Z,101996.34
2024-05-09T06:28:17.947Z,101999.15
2024-05-09T06:30:45.281Z,102002.73
2024-05-09T06:33:14.699Z,102002.52
2024-05-09T06:35:49.068Z,102002.56
2024-05-09T06:38:19.896Z,102005.33
2024-05-09T06:40:47.246Z,102002.73
2024-05-09T06:43:17.626Z,101998.73
2024-05-09T06:45:53.399Z,102006.86
2024-05-09T06:48:21.208Z,102011.68
2024-05-09T06:50:49.604Z,102011.54
2024-05-09T06:53:19.565Z,102012.18
2024-05-09T06:55:46.640Z,102012.04
2024-05-09T06:58:13.894Z,102021.98
2024-05-09T07:00:42.094Z,102023.55
2024-05-09T07:03:12.654Z,102021.95
2024-05-09T07:05:42.351Z,102024.07
2024-05-09T07:08:10.578Z,102024.39
2024-05-09T07:10:38.097Z,102023.04
2024-05-09T07:13:19.894Z,102023.40
2024-05-09T07:16:12.024Z,102021.20
2024-05-09T07:18:39.375Z,102023.26
2024-05-09T07:21:06.790Z,102025.60
2024-05-09T07:23:34.239Z,102025.44
2024-05-09T07:26:01.604Z,102023.05
2024-05-09T07:28:29.114Z,102029.98
2024-05-09T07:30:56.476Z,102029.27
2024-05-09T07:33:24.624Z,102031.17
2024-05-09T07:35:52.118Z,102030.34
2024-05-09T07:38:19.551Z,102030.38
2024-05-09T07:40:46.915Z,102032.52
2024-05-09T07:43:15.281Z,102039.14
2024-05-09T07:45:51.249Z,102042.89
2024-05-09T07:52:38.088Z,102043.55
2024-05-09T07:53:48.088Z,102046.79
2024-05-09T07:56:21.254Z,102045.77
2024-05-09T07:58:51.743Z,102049.59
2024-05-09T08:01:19.623Z,102054.73
2024-05-09T08:03:50.260Z,102060.25
2024-05-09T08:06:17.698Z,102060.73
2024-05-09T08:08:47.113Z,102063.30
2024-05-09T08:11:14.374Z,102067.16
2024-05-09T08:13:41.600Z,102067.64
2024-05-09T08:16:09.320Z,102068.13
2024-05-09T08:18:36.665Z,102070.29
2024-05-09T08:21:04.480Z,102069.36
2024-05-09T08:23:32.044Z,102073.83
2024-05-09T08:25:59.808Z,102072.89
2024-05-09T08:28:28.006Z,102073.26
2024-05-09T08:30:56.541Z,102074.27
2024-05-09T08:33:24.092Z,102074.75
2024-05-09T08:35:53.949Z,102076.22
2024-05-09T08:38:20.914Z,102077.48
2024-05-09T08:40:48.892Z,102076.44
2024-05-09T08:43:19.106Z,102075.29
2024-05-09T08:45:49.039Z,102073.14
2024-05-09T08:48:19.395Z,102071.41
2024-05-09T08:50:52.811Z,102077.53
2024-05-09T08:53:20.476Z,102076.79
2024-05-09T08:55:49.052Z,102076.23
2024-05-09T08:58:17.724Z,102078.80
2024-05-09T09:00:46.387Z,102080.54
2024-05-09T09:03:18.899Z,102084.41
2024-05-09T09:06:08.665Z,102082.30
2024-05-09T09:08:38.720Z,102085.95
2024-05-09T09:11:06.250Z,102082.89
2024-05-09T09:13:33.303Z,102082.29
2024-05-09T09:16:02.013Z,102074.94
2024-05-09T09:18:29.778Z,102078.71
2024-05-09T09:20:57.130Z,102074.20
2024-05-09T09:23:27.751Z,102073.65
2024-05-09T09:26:04.126Z,102071.81
2024-05-09T09:28:36.480Z,102071.47
2024-05-09T09:31:05.003Z,102075.15
2024-05-09T09:33:34.897Z,102072.64
2024-05-09T09:36:02.742Z,102069.47
2024-05-09T09:38:31.900Z,102066.82
2024-05-09T09:41:01.073Z,102066.73
2024-05-09T09:43:30.442Z,102063.63
2024-05-09T09:46:00.094Z,102060.83
2024-05-09T09:48:30.241Z,102063.58
2024-05-09T09:50:57.834Z,102058.19
2024-05-09T09:53:27.644Z,102055.77
2024-05-09T09:55:55.714Z,102061.18
2024-05-09T09:58:23.729Z,102065.10
2024-05-09T10:00:51.153Z,102065.17
2024-05-09T10:03:18.301Z,102061.90
2024-05-09T10:05:47.329Z,102057.86
2024-05-09T10:08:17.798Z,102056.80
2024-05-09T10:10:49.109Z,102057.77
2024-05-09T10:13:16.521Z,102053.89
2024-05-09T10:15:54.374Z,102052.16
2024-05-09T10:18:29.329Z,102048.16
2024-05-09T10:20:59.403Z,102045.61
2024-05-09T10:23:29.016Z,102046.75
2024-05-09T10:25:57.044Z,102045.59
2024-05-09T10:28:28.202Z,102046.98
2024-05-09T10:31:08.259Z,102044.06
2024-05-09T10:33:41.188Z,102043.15
2024-05-09T10:36:21.925Z,102048.48
2024-05-09T10:38:50.029Z,102049.35
2024-05-09T10:41:17.825Z,102044.95
2024-05-09T10:43:45.801Z,102043.55
2024-05-09T10:46:18.415Z,102049.99
2024-05-09T10:48:46.907Z,102045.90
2024-05-09T10:51:14.219Z,102042.34
2024-05-09T10:53:46.626Z,102045.27
2024-05-09T10:56:14.682Z,102049.39
2024-05-09T10:58:42.134Z,102052.05
2024-05-09T11:01:09.584Z,102053.02
2024-05-09T11:03:38.177Z,102052.15
2024-05-09T11:06:06.246Z,102048.93
2024-05-09T11:08:34.979Z,102046.44
2024-05-09T11:11:06.053Z,102043.14
2024-05-09T11:13:35.361Z,102041.10
2024-05-09T11:16:03.684Z,102039.04
2024-05-09T11:18:35.514Z,102041.15
2024-05-09T11:21:11.964Z,102039.16
2024-05-09T11:23:39.436Z,102037.59
2024-05-09T11:26:07.128Z,102035.80
2024-05-09T11:28:35.982Z,102037.49
2024-05-09T11:31:08.935Z,102037.48
2024-05-09T11:33:39.267Z,102037.46
2024-05-09T11:36:08.648Z,102033.66
2024-05-09T11:38:35.984Z,102033.56
2024-05-09T11:41:04.495Z,102039.25
2024-05-09T11:43:31.908Z,102038.09
2024-05-09T11:45:59.872Z,102038.00
2024-05-09T11:48:27.428Z,102035.60
2024-05-09T11:50:55.859Z,102029.80
2024-05-09T11:53:23.081Z,102024.78
2024-05-09T11:55:50.304Z,102021.16
2024-05-09T11:58:18.739Z,102019.23
2024-05-09T12:00:47.030Z,102018.55
2024-05-09T12:03:14.834Z,102018.19
2024-05-09T12:05:42.282Z,102020.01
2024-05-09T12:08:09.652Z,102014.23
2024-05-09T12:10:37.378Z,102014.23
2024-05-09T12:13:06.261Z,102008.34
2024-05-09T12:15:38.634Z,102009.84
2024-05-09T12:18:07.332Z,102008.54
2024-05-09T12:20:38.207Z,102007.28
2024-05-09T12:23:09.424Z,102010.10
2024-05-09T12:25:39.049Z,102014.58
2024-05-09T12:28:07.471Z,102016.15
2024-05-09T12:30:39.738Z,102009.20
2024-05-09T12:33:11.079Z,102007.35
2024-05-09T12:35:40.545Z,102009.95
2024-05-09T12:38:07.827Z,102008.38
2024-05-09T12:40:37.943Z,102010.99
2024-05-09T12:43:07.409Z,102006.79
2024-05-09T12:45:35.531Z,102003.13
2024-05-09T12:48:05.936Z,102000.04
2024-05-09T12:50:34.441Z,102004.85
2024-05-09T12:53:03.621Z,102003.19
2024-05-09T12:55:40.513Z,102002.85
2024-05-09T12:58:16.771Z,101996.73
2024-05-09T13:00:45.013Z,101995.20
2024-05-09T13:03:12.904Z,101994.59
2024-05-09T13:05:40.784Z,101989.81
2024-05-09T13:08:08.404Z,101993.19
2024-05-09T13:10:36.301Z,101993.01
2024-05-09T13:13:04.260Z,101995.36
2024-05-09T13:15:42.189Z,101998.98
2024-05-09T13:18:09.587Z,102000.76
2024-05-09T13:20:37.252Z,101997.20
2024-05-09T13:23:06.084Z,101991.98
2024-05-09T13:25:35.874Z,101984.95
2024-05-09T13:28:04.724Z,101990.98
2024-05-09T13:30:39.329Z,101990.80
2024-05-09T13:33:10.644Z,101986.61
2024-05-09T13:35:40.148Z,101986.05
2024-05-09T13:38:08.201Z,101986.80
2024-05-09T13:40:36.516Z,101988.45
2024-05-09T13:43:04.953Z,101989.24
2024-05-09T13:45:33.613Z,101985.17
2024-05-09T13:48:03.048Z,101983.13
2024-05-09T13:50:35.050Z,101978.16
2024-05-09T13:53:06.702Z,101979.75
2024-05-09T13:55:37.660Z,101981.85
2024-05-09T13:58:05.616Z,101986.46
2024-05-09T14:00:43.836Z,101985.15
2024-05-09T14:03:18.111Z,101986.46
2024-05-09T14:05:48.751Z,101986.77
2024-05-09T14:08:18.861Z,101984.58
2024-05-09T14:10:46.630Z,101978.23
2024-05-09T14:13:14.864Z,101978.16
2024-05-09T14:15:41.984Z,101974.46
2024-05-09T14:18:12.511Z,101976.62
2024-05-09T14:20:42.678Z,101977.19
2024-05-09T14:23:10.499Z,101970.27
2024-05-09T14:25:41.787Z,101972.55
2024-05-09T14:28:11.191Z,101968.79
2024-05-09T14:30:39.251Z,101964.89
2024-05-09T14:33:07.990Z,101966.59
2024-05-09T14:35:37.339Z,101959.94
2024-05-09T14:38:06.339Z,101958.72
2024-05-09T14:43:04.128Z,101959.23
2024-05-09T14:45:31.967Z,101958.20
2024-05-09T14:47:59.588Z,101961.42
2024-05-09T14:50:34.718Z,101960.95
2024-05-09T14:53:07.269Z,101959.17
2024-05-09T14:55:36.715Z,101957.67
2024-05-09T14:58:06.472Z,101963.05
2024-05-09T15:00:40.398Z,101967.63
2024-05-09T15:03:10.492Z,101962.75
2024-05-09T15:05:37.920Z,101962.27
2024-05-09T15:08:06.681Z,101957.29
2024-05-09T15:10:36.332Z,101952.16
2024-05-09T15:13:06.039Z,101957.75
2024-05-09T15:15:34.643Z,101957.63
2024-05-09T15:18:03.734Z,101958.88
2024-05-09T15:20:35.377Z,101957.59
2024-05-09T15:23:05.271Z,101961.38
2024-05-09T15:25:33.117Z,101961.61
2024-05-09T15:28:00.228Z,101963.70
2024-05-09T15:30:31.863Z,101962.89
2024-05-09T15:33:02.800Z,101956.91
2024-05-09T15:35:29.998Z,101961.75
2024-05-09T15:37:57.195Z,101965.01
2024-05-09T15:40:34.420Z,101959.58
2024-05-09T15:43:07.422Z,101960.23
2024-05-09T15:45:35.303Z,101959.98
2024-05-09T15:48:03.686Z,101963.44
2024-05-09T15:50:37.990Z,101965.54
2024-05-09T15:53:09.556Z,101963.70
2024-05-09T15:55:37.554Z,101966.75
2024-05-09T15:58:05.494Z,101969.31
2024-05-09T16:00:38.157Z,101966.23
2024-05-09T16:03:13.469Z,101966.84
2024-05-09T16:05:47.914Z,101967.51
2024-05-09T16:08:16.027Z,101969.72
2024-05-09T16:10:45.717Z,101966.98
2024-05-09T16:13:15.015Z,101966.77
2024-05-09T16:15:43.317Z,101968.98
2024-05-09T16:18:10.691Z,101969.23
2024-05-09T16:20:41.121Z,101971.96
2024-05-09T16:23:10.383Z,101978.91
2024-05-09T16:25:38.897Z,101975.71
2024-05-09T16:28:09.901Z,101976.33
2024-05-09T16:30:39.413Z,101977.98
2024-05-09T16:33:07.507Z,101979.51
2024-05-09T16:35:35.472Z,101985.56
2024-05-09T16:38:03.605Z,101984.94
2024-05-09T16:40:37.937Z,101989.77
2024-05-09T16:43:12.832Z,101992.46
2024-05-09T16:45:45.090Z,101999.23
2024-05-09T16:48:13.617Z,102003.00
2024-05-09T16:50:40.762Z,102004.13
2024-05-09T16:53:08.118Z,102006.82
2024-05-09T16:55:36.053Z,102007.42
2024-05-09T16:58:05.864Z,102010.63
2024-05-09T17:00:40.669Z,102008.09
2024-05-09T17:03:13.864Z,102010.42
2024-05-09T17:05:43.205Z,102011.20
2024-05-09T17:08:11.218Z,102010.05
2024-05-09T17:10:38.604Z,102010.63
2024-05-09T17:13:07.461Z,102007.70
2024-05-09T17:15:37.164Z,102012.15
2024-05-09T17:18:05.956Z,102010.64
2024-05-09T17:20:36.164Z,102009.13
2024-05-09T17:23:14.584Z,102009.86
2024-05-09T17:25:42.438Z,102013.41
2024-05-09T17:28:10.519Z,102012.23
2024-05-09T17:30:39.907Z,102013.34
2024-05-09T17:33:09.594Z,102014.41
2024-05-09T17:35:38.114Z,102021.79
2024-05-09T17:38:05.894Z,102019.88
2024-05-09T17:40:36.137Z,102023.75
2024-05-09T17:43:06.786Z,102028.48
2024-05-09T17:45:38.024Z,102031.81
2024-05-09T17:48:06.141Z,102033.73
2024-05-09T17:50:36.101Z,102037.23
2024-05-09T17:53:05.776Z,102037.77
2024-05-09T17:55:33.592Z,102037.77
2024-05-09T17:58:01.528Z,102035.52
2024-05-09T18:00:37.006Z,102039.18
2024-05-09T18:03:10.486Z,102042.87
2024-05-09T18:05:38.069Z,102042.18
2024-05-09T18:08:06.426Z,102044.30
2024-05-09T18:10:37.761Z,102044.13
2024-05-09T18:13:08.271Z,102047.83
2024-05-09T18:15:36.117Z,102050.27
2024-05-09T18:18:04.953Z,102054.83
2024-05-09T18:20:41.094Z,102060.77
2024-05-09T18:23:13.767Z,102064.44
2024-05-09T18:25:41.313Z,102069.17
2024-05-09T18:28:08.527Z,102071.98
2024-05-09T18:30:37.234Z,102072.50
2024-05-09T18:33:07.251Z,102069.02
2024-05-09T18:35:36.351Z,102067.61
2024-05-09T18:38:04.575Z,102069.02
2024-05-09T18:40:35.732Z,102074.77
2024-05-09T18:43:07.181Z,102077.21
2024-05-09T18:45:37.704Z,102079.67
2024-05-09T18:48:09.576Z,102077.73
2024-05-09T18:50:40.191Z,102076.70
2024-05-09T18:53:12.628Z,102080.89
2024-05-09T18:55:43.471Z,102085.95
2024-05-09T18:58:11.008Z,102088.23
2024-05-09T19:00:40.461Z,102089.45
2024-05-09T19:03:12.521Z,102090.66
2024-05-09T19:05:43.265Z,102095.55
2024-05-09T19:08:11.722Z,102094.48
2024-05-09T19:10:39.318Z,102097.27
2024-05-09T19:13:11.546Z,102096.58
2024-05-09T19:15:41.611Z,102091.48
2024-05-09T19:18:10.939Z,102092.87
2024-05-09T19:20:38.878Z,102092.50
2024-05-09T19:23:06.863Z,102091.63
2024-05-09T19:25:35.550Z,102087.97
2024-05-09T19:28:04.015Z,102092.31
2024-05-09T19:30:38.565Z,102087.06
2024-05-09T19:33:11.414Z,102088.44
2024-05-09T19:35:40.076Z,102087.55
2024-05-09T19:38:07.259Z,102087.52
2024-05-09T19:40:35.333Z,102091.34
2024-05-09T19:43:04.600Z,102097.95
2024-05-09T19:45:34.419Z,102101.42
2024-05-09T19:48:03.424Z,102096.33
2024-05-09T19:50:37.770Z,102095.08
2024-05-09T19:53:09.742Z,102091.59
2024-05-09T19:55:37.252Z,102088.29
2024-05-09T19:58:08.181Z,102089.15
2024-05-09T20:00:39.407Z,102090.70
2024-05-09T20:03:10.023Z,102097.15
2024-05-09T20:05:38.300Z,102095.94
2024-05-09T20:08:06.612Z,102100.11
2024-05-09T20:10:35.640Z,102098.54
2024-05-09T20:13:06.044Z,102100.06
2024-05-09T20:15:35.098Z,102099.86
2024-05-09T20:18:03.628Z,102097.55
2024-05-09T20:20:37.670Z,102099.77
2024-05-09T20:23:12.862Z,102104.61
2024-05-09T20:25:41.230Z,102104.55
2024-05-09T20:28:09.120Z,102103.48
2024-05-09T20:30:36.810Z,102098.89
2024-05-09T20:33:07.039Z,102104.41
2024-05-09T20:35:35.570Z,102105.23
2024-05-09T20:38:03.523Z,102102.22
2024-05-09T20:40:35.884Z,102103.52
2024-05-09T20:43:08.025Z,102103.30
2024-05-09T20:45:36.024Z,102107.11
2024-05-09T20:48:03.886Z,102109.00
2024-05-09T20:50:37.759Z,102109.84
2024-05-09T20:53:10.295Z,102109.65
2024-05-09T20:55:37.744Z,102109.61
2024-05-09T20:58:05.375Z,102111.66
2024-05-09T21:00:39.300Z,102111.45
2024-05-09T21:03:10.799Z,102114.94
2024-05-09T21:05:38.781Z,102116.83
2024-05-09T21:08:06.935Z,102124.60
2024-05-09T21:10:35.370Z,102123.68
2024-05-09T21:13:03.682Z,102123.27
2024-05-09T21:15:31.651Z,102125.50
2024-05-09T21:17:59.449Z,102124.41
2024-05-09T21:22:57.320Z,102121.96
2024-05-09T21:25:24.682Z,102119.98
2024-05-09T21:27:51.811Z,102122.54
2024-05-09T21:30:31.244Z,102121.10
2024-05-09T21:33:06.199Z,102123.83
2024-05-09T21:35:33.618Z,102121.69
2024-05-09T21:38:01.000Z,102123.27
2024-05-09T21:40:34.174Z,102122.55
2024-05-09T21:43:04.383Z,102125.27
2024-05-09T21:45:32.964Z,102123.99
2024-05-09T21:48:02.318Z,102128.16
2024-05-09T21:50:36.878Z,102126.73
2024-05-09T21:53:09.108Z,102124.25
2024-05-09T21:55:36.224Z,102119.73
2024-05-09T21:58:03.875Z,102116.66
2024-05-09T22:00:36.745Z,102118.80
2024-05-09T22:03:07.569Z,102116.58
2024-05-09T22:05:35.978Z,102109.47
2024-05-09T22:08:03.629Z,102109.48
2024-05-09T22:10:34.596Z,102108.95
2024-05-09T22:13:05.407Z,102111.73
2024-05-09T22:15:37.974Z,102115.70
2024-05-09T22:18:10.339Z,102114.32
2024-05-09T22:20:43.244Z,102117.46
2024-05-09T22:23:10.721Z,102121.14
2024-05-09T22:25:38.876Z,102115.41
2024-05-09T22:28:06.597Z,102112.15
2024-05-09T22:30:37.804Z,102110.80
2024-05-09T22:33:08.442Z,102107.36
2024-05-09T22:35:36.910Z,102100.60
2024-05-09T22:38:04.682Z,102100.33
2024-05-09T22:40:42.158Z,102099.91
2024-05-09T22:43:23.668Z,102094.25
2024-05-09T22:45:56.107Z,102095.35
2024-05-09T22:48:25.023Z,102095.76
2024-05-09T22:50:53.550Z,102096.00
2024-05-09T22:53:25.172Z,102096.40
2024-05-09T22:55:53.117Z,102094.02
2024-05-09T22:58:21.050Z,102088.67
2024-05-09T23:00:48.350Z,102083.23
2024-05-09T23:03:16.091Z,102081.91
2024-05-09T23:05:43.962Z,102079.35
2024-05-09T23:08:11.120Z,102075.55
2024-05-09T23:10:38.636Z,102072.97
2024-05-09T23:13:06.969Z,102069.34
2024-05-09T23:15:35.824Z,102066.94
2024-05-09T23:18:03.625Z,102064.00
2024-05-09T23:20:37.052Z,102062.98
2024-05-09T23:23:10.765Z,102064.95
2024-05-09T23:25:43.294Z,102064.80
2024-05-09T23:28:11.514Z,102065.88
2024-05-09T23:30:40.848Z,102065.18
2024-05-09T23:33:14.530Z,102063.64
2024-05-09T23:35:43.538Z,102062.09
2024-05-09T23:38:11.223Z,102057.73
2024-05-09T23:40:40.548Z,102057.02
2024-05-09T23:43:10.188Z,102054.77
2024-05-09T23:45:37.844Z,102052.71
2024-05-09T23:48:05.749Z,102054.29
2024-05-09T23:50:36.897Z,102055.86
2024-05-09T23:53:07.223Z,102055.17
2024-05-09T23:55:35.735Z,102057.79
2024-05-09T23:58:03.226Z,102056.06
